Terminal Aerodrome Forecast
Issued by NWS Pendleton, OR

Home | Current Version | Previous Version | Text Only | Print | Product List | Glossary On
Versions: 1 2 3 4 5 6 7 8 9 10 11 12 13 14 15
000
FTUS46 KPDT 050539
TAFPDT
TAF
KPDT 050539Z 0506/0606 24010KT P6SM BKN070
     FM052000 26008KT P6SM SCT050 BKN100
     FM052200 27010KT 5SM -SHSN BR SCT005 BKN015
     FM060300 26008KT P6SM VCSH SCT015 BKN035=

USA.gov is the U.S. government's official web portal to all federal, state and local government web resources and services.